North Rose, NY

4:08 AM EST on February 07, 2016 (GMT -0500)
Wayne County NY | | Change Station
CLOSE
Current Station
Personal Weather Station
Location: Rose, NY
Elevation: 413 ft
Nearby Weather Stations

Elev 413 ft 43.15 °N, 76.88 °W | Updated 1 second ago

Overcast
Overcast
26.8 °F
Feels Like 27 °F
N
0.5
Wind Variable Wind from NE
Gusts 1.6 mph

Today
High -- | Low -- °F
--% Chance of Precip.
Yesterday
High -- | Low -- °F
Precip. -- in
Pressure 30.14 in
Visibility 10.0 miles
Clouds Mostly Cloudy 7000 ft
Windchill 27 °F
Dew Point 20 °F
Humidity 75%
Rainfall 0.00 in
Snow Depth Not available.
7:16 AM 5:27 PM
Waning Crescent, 2% visible
METAR KFZY 070854Z AUTO 22004KT 10SM BKN070 00/M06 A3012 RMK AO2 SLP206 T00001056 56004
Pressure 30.14 in
Visibility 10.0 miles
Clouds Mostly Cloudy 7000 ft
Windchill 27 °F
Dew Point 20 °F
Humidity 75%
Rainfall 0.00 in
Snow Depth Not available.
7:16 AM 5:27 PM
Waning Crescent, 2% visible
METAR KFZY 070854Z AUTO 22004KT 10SM BKN070 00/M06 A3012 RMK AO2 SLP206 T00001056 56004

10-Day Weather Forecast

Almanac

Astronomy

Feb. 07, 2016 Rise Set
Actual Time
Civil Twilight
Nautical Twilight
Astronomical Twilight
Moon
Length of Visible Light
Length of Day
Tomorrow will be .
, % of the Moon is Illuminated

Today's Extremes

State Highs State Lows

Community

WunderPhotos

Upload Photos

1,891,171 photos uploaded!

WunderBlog® & News

Nearby

Air Quality

  Air Quality AQ Index Pollutant
Not available.

Snow Depth

Station Depth Elevation

Earthquake Activity

City Distance Mag. Time & Date
Minimum magnitude displayed is 2.5.

Coastal Water Temperatures

Place Temperature

Stations

Nearby Weather Stations

Station Location Temp. Windchill Dew Point Humidity Wind Precip. Elev Updated Type
                   

Watches & Warnings

There are currently no watches in effect.